Time;durP1;ratioP1;P1;durP2;ratioP2;P2;SDS_P1;SDS_P2;PMS_P1;PMS_P2;Temp;Humidity;BMP_temperature;BMP_pressure;BME280_temperature;BME280_humidity;BME280_pressure;Samples;Min_cycle;Max_cycle;Signal;HPM_P1;HPM_P2
2021/11/25 00:00:27;;;;;;;22.57;16.37;;;;;;;7.09;85.18;95484.16;5058182;28;20449;-78
2021/11/25 00:02:54;;;;;;;22.07;16.10;;;;;;;6.95;85.58;95489.41;5041298;28;20855;-78
2021/11/25 00:05:21;;;;;;;19.60;14.87;;;;;;;7.01;85.42;95494.22;5077406;28;20429;-78
2021/11/25 00:07:48;;;;;;;19.53;15.23;;;;;;;6.98;85.45;95490.03;5076737;28;20508;-79
2021/11/25 00:10:15;;;;;;;22.27;15.40;;;;;;;6.96;85.15;95485.84;5076425;28;20458;-77
2021/11/25 00:12:43;;;;;;;23.90;14.50;;;;;;;6.93;85.21;95479.03;5076015;28;20955;-78
2021/11/25 00:15:12;;;;;;;21.13;15.07;;;;;;;7.05;85.29;95480.91;5076115;28;20491;-78
2021/11/25 00:17:41;;;;;;;21.67;15.40;;;;;;;7.05;84.91;95485.28;5076420;28;20458;-77
2021/11/25 00:20:11;;;;;;;22.17;14.47;;;;;;;7.07;85.15;95479.03;5076580;28;20434;-78
2021/11/25 00:22:39;;;;;;;21.17;16.03;;;;;;;7.12;84.70;95484.81;5076844;28;20555;-78
2021/11/25 00:25:07;;;;;;;20.00;14.17;;;;;;;7.06;84.24;95479.13;5076410;28;20540;-78
2021/11/25 00:27:34;;;;;;;25.30;18.13;;;;;;;7.16;84.39;95482.84;5041756;28;20796;-78
2021/11/25 00:30:01;;;;;;;25.40;17.43;;;;;;;7.26;84.23;95481.34;5076349;28;20438;-78
2021/11/25 00:32:28;;;;;;;26.47;15.53;;;;;;;7.14;84.72;95485.53;5075986;28;20434;-78
2021/11/25 00:34:56;;;;;;;27.10;16.97;;;;;;;7.34;83.93;95489.53;5076451;28;20445;-78
2021/11/25 00:37:23;;;;;;;23.23;18.17;;;;;;;7.43;83.17;95485.50;5076135;28;20430;-78
2021/11/25 00:39:50;;;;;;;26.17;17.83;;;;;;;7.54;83.44;95490.06;5076589;28;20445;-78
2021/11/25 00:42:17;;;;;;;22.30;16.63;;;;;;;7.62;82.74;95483.41;5075660;28;20931;-78
2021/11/25 00:44:44;;;;;;;24.50;17.60;;;;;;;7.69;82.46;95486.47;5040876;28;20444;-78
2021/11/25 00:47:11;;;;;;;25.10;18.23;;;;;;;7.75;82.18;95483.44;5075466;28;20946;-77
2021/11/25 00:49:38;;;;;;;27.50;19.40;;;;;;;7.73;81.76;95485.31;5075573;28;20432;-78
2021/11/25 00:52:07;;;;;;;27.03;18.90;;;;;;;7.77;82.11;95482.41;5057158;28;20440;-78
2021/11/25 00:54:34;;;;;;;22.63;17.97;;;;;;;7.74;81.73;95481.78;5041001;28;20460;-78
2021/11/25 00:57:01;;;;;;;23.37;16.70;;;;;;;7.79;81.38;95479.69;5075750;28;20447;-78
2021/11/25 00:59:27;;;;;;;24.70;16.33;;;;;;;7.80;80.86;95478.75;5075377;28;20426;-78
2021/11/25 01:01:54;;;;;;;24.20;16.23;;;;;;;7.30;81.99;95480.22;5040020;28;20458;-78
2021/11/25 01:04:23;;;;;;;22.90;14.97;;;;;;;7.41;82.45;95476.94;5075149;28;20474;-78
2021/11/25 01:24:59;;;;;;;15.50;11.30;;;;;;;6.76;84.26;95453.97;5060460;28;20460;-78
2021/11/25 01:27:26;;;;;;;16.20;12.73;;;;;;;6.61;84.88;95457.50;5075236;28;20455;-77
2021/11/25 01:29:52;;;;;;;20.70;12.47;;;;;;;6.57;85.87;95447.34;5075296;28;20430;-78
2021/11/25 01:32:19;;;;;;;16.80;10.40;;;;;;;6.48;86.03;95446.16;5074319;28;20447;-78
2021/11/25 01:34:46;;;;;;;14.30;10.90;;;;;;;6.40;86.61;95441.41;5074531;28;20447;-78
2021/11/25 01:37:13;;;;;;;18.30;13.70;;;;;;;6.35;86.69;95445.19;5074873;28;20444;-78
2021/11/25 01:39:40;;;;;;;16.63;11.20;;;;;;;6.39;86.60;95442.34;5075002;28;20425;-78
2021/11/25 01:42:08;;;;;;;14.13;11.27;;;;;;;6.43;86.26;95441.22;5075587;28;20444;-77
2021/11/25 01:44:35;;;;;;;17.13;12.40;;;;;;;6.49;85.91;95447.81;5074251;28;20479;-78
2021/11/25 01:47:03;;;;;;;17.47;12.57;;;;;;;6.38;86.88;95451.06;5074788;28;20439;-78
2021/11/25 01:49:30;;;;;;;15.37;10.70;;;;;;;6.50;86.60;95452.09;5074628;28;20444;-78
2021/11/25 01:51:57;;;;;;;15.70;10.87;;;;;;;6.55;86.24;95451.81;5074601;28;20504;-78
2021/11/25 01:54:24;;;;;;;17.30;12.00;;;;;;;6.56;86.28;95448.28;5074657;28;20492;-78
2021/11/25 01:56:51;;;;;;;13.10;10.27;;;;;;;6.59;85.26;95450.69;5074420;28;20453;-78
2021/11/25 01:59:20;;;;;;;17.27;11.70;;;;;;;6.63;85.72;95447.81;5073938;28;20435;-78
2021/11/25 02:01:46;;;;;;;14.43;11.80;;;;;;;6.72;85.44;95443.84;5074831;28;20522;-78
2021/11/25 02:04:17;;;;;;;64.53;45.73;;;;;;;6.69;84.89;95447.47;5074080;28;20865;-78
2021/11/25 02:06:44;;;;;;;29.00;21.67;;;;;;;6.80;84.43;95445.03;5075251;28;20429;-78
2021/11/25 02:09:12;;;;;;;22.77;15.77;;;;;;;6.89;83.72;95440.19;5073985;28;20796;-78
2021/11/25 02:11:39;;;;;;;16.87;13.00;;;;;;;6.85;83.51;95436.94;5074243;28;20450;-78
2021/11/25 02:14:06;;;;;;;17.43;13.87;;;;;;;6.92;83.22;95442.59;5073097;28;20776;-78
2021/11/25 02:16:35;;;;;;;17.47;15.67;;;;;;;6.96;83.31;95439.72;5073803;28;20433;-78
2021/11/25 02:19:02;;;;;;;19.93;13.50;;;;;;;6.97;83.03;95435.34;5074859;28;20440;-78
2021/11/25 02:21:30;;;;;;;18.90;14.13;;;;;;;6.97;82.54;95435.34;5074248;28;20479;-78
2021/11/25 02:23:57;;;;;;;25.07;15.30;;;;;;;6.99;82.25;95433.47;5073688;28;20482;-78
2021/11/25 02:26:25;;;;;;;25.20;18.47;;;;;;;7.03;82.60;95437.56;5074716;28;20482;-78
2021/11/25 02:28:52;;;;;;;23.13;19.17;;;;;;;7.01;82.96;95431.63;5074659;28;20777;-78
2021/11/25 02:31:19;;;;;;;27.10;18.93;;;;;;;6.99;82.77;95434.31;5055678;28;20920;-78
2021/11/25 02:33:46;;;;;;;21.60;16.87;;;;;;;6.99;83.18;95425.66;5074434;28;20434;-78
2021/11/25 02:36:13;;;;;;;28.53;15.07;;;;;;;6.84;83.41;95420.44;5073793;28;20446;-78
2021/11/25 02:38:42;;;;;;;18.97;15.87;;;;;;;6.93;83.22;95426.00;5071864;28;20437;-78
2021/11/25 02:41:09;;;;;;;19.17;14.50;;;;;;;6.89;83.25;95422.75;5074531;28;20441;-78
2021/11/25 02:43:37;;;;;;;19.30;13.83;;;;;;;6.94;83.14;95427.69;5073844;28;20480;-78
2021/11/25 02:46:05;;;;;;;19.87;14.10;;;;;;;6.93;83.19;95428.63;5073558;28;20785;-78
2021/11/25 02:48:43;;;;;;;15.47;11.93;;;;;;;6.77;83.94;95431.34;5073948;28;20781;-78
2021/11/25 02:51:11;;;;;;;20.33;13.10;;;;;;;6.65;84.08;95419.91;5073570;28;20482;-78
2021/11/25 02:53:38;;;;;;;19.20;14.07;;;;;;;6.66;84.35;95416.38;5073900;28;20429;-78
2021/11/25 02:56:08;;;;;;;20.67;14.07;;;;;;;6.57;84.93;95422.13;5073715;28;20499;-78
2021/11/25 02:58:36;;;;;;;18.23;14.03;;;;;;;6.65;84.74;95413.81;5073768;28;20486;-78
2021/11/25 03:01:07;;;;;;;17.83;13.63;;;;;;;6.59;84.56;95412.44;5073660;28;20456;-78
2021/11/25 03:03:34;;;;;;;20.40;13.80;;;;;;;6.40;86.23;95410.13;5073152;28;20848;-78
2021/11/25 03:06:01;;;;;;;21.60;14.07;;;;;;;6.55;85.90;95413.56;5073510;28;20803;-78
2021/11/25 03:08:27;;;;;;;24.73;15.27;;;;;;;6.36;86.55;95408.63;5038568;28;20438;-78
2021/11/25 03:11:01;;;;;;;21.73;14.53;;;;;;;6.06;87.68;95413.88;5038545;28;20448;-78
2021/11/25 03:13:30;;;;;;;22.47;15.90;;;;;;;6.25;87.91;95411.03;5073319;28;20447;-78
2021/11/25 03:15:58;;;;;;;24.70;17.23;;;;;;;6.16;88.15;95412.41;5073607;28;20432;-78
2021/11/25 03:21:46;;;;;;;23.73;14.80;;;;;;;5.65;90.92;95407.59;5072477;28;20399;-78
2021/11/25 03:24:13;;;;;;;23.27;16.07;;;;;;;5.71;91.21;95404.63;5073260;28;20472;-78
2021/11/25 03:26:40;;;;;;;29.10;18.37;;;;;;;5.76;91.18;95394.78;5076717;28;20933;-78
2021/11/25 03:29:08;;;;;;;29.57;18.23;;;;;;;5.59;91.61;95390.56;5077474;28;20911;-78
2021/11/25 03:31:35;;;;;;;35.57;20.20;;;;;;;5.57;91.88;95398.47;5077857;28;20830;-78
2021/11/25 03:34:04;;;;;;;24.67;15.60;;;;;;;5.50;92.68;95388.50;5077359;28;20448;-78
2021/11/25 03:36:31;;;;;;;28.70;18.50;;;;;;;5.56;92.62;95396.78;5042001;28;20440;-79
2021/11/25 03:38:58;;;;;;;27.93;17.67;;;;;;;5.51;92.92;95398.81;5077208;28;20787;-78
2021/11/25 03:41:26;;;;;;;28.40;18.40;;;;;;;5.62;91.99;95397.34;5077194;28;20430;-78
2021/11/25 03:43:53;;;;;;;29.17;16.27;;;;;;;5.48;92.82;95390.31;5058304;28;20480;-78
2021/11/25 03:46:22;;;;;;;29.70;17.73;;;;;;;5.34;94.22;95392.88;5077025;28;20447;-78
2021/11/25 03:48:49;;;;;;;22.90;15.50;;;;;;;5.31;94.29;95395.66;5076818;28;20432;-78
2021/11/25 03:51:16;;;;;;;26.20;16.17;;;;;;;5.35;93.52;95391.94;5058748;28;20436;-78
2021/11/25 03:53:46;;;;;;;25.73;16.83;;;;;;;5.37;93.96;95385.72;5076952;28;20445;-78
2021/11/25 03:56:13;;;;;;;24.00;17.10;;;;;;;5.30;94.40;95389.63;5076655;28;20440;-78
2021/11/25 03:58:40;;;;;;;26.73;17.30;;;;;;;5.51;93.76;95382.38;5077560;28;20450;-78
2021/11/25 04:01:08;;;;;;;25.80;17.47;;;;;;;5.54;93.11;95382.19;5076676;28;20462;-78
2021/11/25 04:03:37;;;;;;;23.83;15.50;;;;;;;5.65;92.92;95371.97;5076821;28;20468;-78
2021/11/25 04:06:05;;;;;;;25.17;17.40;;;;;;;5.91;91.79;95375.72;5076338;28;20802;-78
2021/11/25 04:08:32;;;;;;;25.17;16.07;;;;;;;6.08;91.18;95375.56;5076480;28;20937;-78
2021/11/25 04:10:59;;;;;;;24.50;16.53;;;;;;;6.20;89.74;95381.81;5076751;28;20443;-78
2021/11/25 04:13:26;;;;;;;28.10;17.17;;;;;;;6.33;89.97;95379.28;5076249;28;20440;-78
2021/11/25 04:15:53;;;;;;;29.60;19.30;;;;;;;6.46;89.05;95372.41;5076177;28;20447;-78
2021/11/25 04:18:21;;;;;;;29.07;16.77;;;;;;;6.57;88.61;95375.19;5076157;28;20426;-78
2021/11/25 04:20:49;;;;;;;21.13;13.90;;;;;;;6.51;87.40;95375.56;5076467;28;20782;-78
2021/11/25 04:23:16;;;;;;;23.77;15.50;;;;;;;6.59;87.46;95378.53;5040881;28;20449;-78
2021/11/25 04:25:44;;;;;;;21.23;15.37;;;;;;;6.66;86.85;95379.03;5075711;28;20477;-78
2021/11/25 04:28:11;;;;;;;21.07;13.40;;;;;;;6.59;86.50;95378.53;5076269;28;20426;-78
2021/11/25 04:36:05;;;;;;;23.97;16.67;;;;;;;6.70;86.70;95383.13;5014054;28;20481;-78
2021/11/25 04:38:32;;;;;;;21.77;15.13;;;;;;;6.78;86.72;95388.69;5013889;28;20452;-78
2021/11/25 04:41:02;;;;;;;25.70;16.00;;;;;;;6.79;86.11;95385.16;5013844;28;20439;-78
2021/11/25 04:43:31;;;;;;;20.57;15.87;;;;;;;6.86;86.00;95383.81;5013805;28;21032;-78
2021/11/25 04:45:58;;;;;;;19.53;15.67;;;;;;;6.86;85.66;95378.59;5013870;28;20487;-78
2021/11/25 04:48:28;;;;;;;26.27;17.70;;;;;;;6.89;85.91;95390.63;5013890;28;20424;-78
2021/11/25 04:50:55;;;;;;;20.63;14.40;;;;;;;6.93;85.81;95377.28;5014040;28;20522;-78
2021/11/25 04:53:24;;;;;;;19.77;14.37;;;;;;;6.81;85.59;95380.66;5013622;28;20439;-78
2021/11/25 04:55:51;;;;;;;22.00;12.60;;;;;;;6.40;87.18;95381.44;5014545;28;20425;-78
2021/11/25 04:58:18;;;;;;;17.80;12.70;;;;;;;6.50;87.32;95379.09;5014019;28;20452;-78
2021/11/25 05:00:47;;;;;;;19.73;13.97;;;;;;;6.68;86.62;95366.72;5013432;28;20443;-78
2021/11/25 05:03:14;;;;;;;23.50;15.33;;;;;;;6.73;87.07;95370.72;5013572;28;20443;-78
2021/11/25 05:05:41;;;;;;;24.03;16.60;;;;;;;6.85;86.60;95371.72;5013754;28;20472;-78
2021/11/25 05:08:08;;;;;;;21.83;14.77;;;;;;;6.93;86.51;95377.28;5013887;28;20445;-78
2021/11/25 05:10:37;;;;;;;23.10;14.23;;;;;;;6.97;86.58;95367.53;5043438;28;20528;-78
2021/11/25 05:13:04;;;;;;;21.67;13.77;;;;;;;7.02;85.91;95371.50;5075830;28;20440;-78
2021/11/25 05:15:31;;;;;;;19.50;15.03;;;;;;;7.05;86.23;95367.88;5075767;28;20524;-78
2021/11/25 05:17:58;;;;;;;24.15;16.95;;;;;;;7.12;85.96;95374.34;5075163;28;20434;-79
2021/11/25 05:20:25;;;;;;;33.53;23.60;;;;;;;7.08;85.59;95378.09;5074957;28;20202;-79
2021/11/25 05:22:52;;;;;;;40.50;27.87;;;;;;;7.00;85.57;95382.97;5075852;28;20451;-78
2021/11/25 05:25:19;;;;;;;23.80;17.03;;;;;;;6.95;85.10;95374.59;5074569;28;20504;-79
2021/11/25 05:27:48;;;;;;;20.73;14.47;;;;;;;6.96;85.85;95377.13;5074888;28;20444;-79
2021/11/25 05:30:17;;;;;;;23.33;15.33;;;;;;;6.74;85.87;95368.94;5074686;28;20924;-78
2021/11/25 05:32:45;;;;;;;24.97;15.27;;;;;;;6.61;86.69;95376.66;5075273;28;20429;-78
2021/11/25 05:35:13;;;;;;;18.40;13.30;;;;;;;6.66;87.24;95373.81;5075415;28;20436;-78
2021/11/25 05:37:41;;;;;;;21.97;13.40;;;;;;;6.68;86.58;95383.22;5075460;28;20436;-79
2021/11/25 05:40:09;;;;;;;18.87;13.53;;;;;;;6.67;86.34;95376.31;5074912;28;20438;-79
2021/11/25 05:42:36;;;;;;;22.67;12.10;;;;;;;6.65;86.62;95383.41;5074845;28;20846;-79
2021/11/25 05:45:07;;;;;;;19.30;12.33;;;;;;;6.67;86.59;95384.16;5074625;28;20484;-78
2021/11/25 05:47:36;;;;;;;27.77;17.63;;;;;;;6.72;86.43;95389.06;5074983;28;20936;-78
2021/11/25 05:50:06;;;;;;;33.63;20.47;;;;;;;6.73;86.48;95386.38;5074332;28;20451;-78
2021/11/25 05:52:33;;;;;;;31.10;21.30;;;;;;;6.74;86.73;95379.38;5074604;28;20450;-78
2021/11/25 05:55:00;;;;;;;25.17;19.30;;;;;;;6.65;87.26;95382.53;5074198;28;20803;-78
2021/11/25 05:57:27;;;;;;;28.53;20.07;;;;;;;6.63;86.52;95385.25;5073698;28;20443;-79
2021/11/25 05:59:54;;;;;;;21.57;14.60;;;;;;;6.64;86.72;95386.91;5073087;28;20799;-78
2021/11/25 06:02:22;;;;;;;17.60;12.40;;;;;;;6.59;87.26;95394.19;5074620;28;20482;-78
2021/11/25 06:04:49;;;;;;;16.30;11.27;;;;;;;6.49;87.53;95390.47;5073935;28;20968;-78
2021/11/25 06:07:16;;;;;;;17.33;11.60;;;;;;;6.56;87.05;95389.16;5075214;28;20440;-80
2021/11/25 06:09:43;;;;;;;21.73;13.73;;;;;;;6.60;87.65;95389.81;5074379;28;20435;-79
2021/11/25 06:12:52;;;;;;;26.63;16.83;;;;;;;6.66;87.19;95392.06;5039264;28;20953;-78
2021/11/25 06:15:20;;;;;;;21.93;15.93;;;;;;;6.60;86.93;95395.84;5073969;28;20904;-79
2021/11/25 06:17:49;;;;;;;16.87;12.47;;;;;;;6.55;87.50;95392.69;4990365;28;20540;-80
2021/11/25 06:20:18;;;;;;;18.83;13.03;;;;;;;6.56;86.85;95406.56;5039109;28;20446;-79
2021/11/25 06:22:48;;;;;;;12.60;10.40;;;;;;;6.40;87.24;95401.47;5073801;28;20433;-79
2021/11/25 06:25:17;;;;;;;16.80;11.70;;;;;;;6.40;88.07;95404.06;5074062;28;20800;-80
2021/11/25 06:27:44;;;;;;;18.20;12.53;;;;;;;6.52;87.66;95396.34;5073914;28;20930;-79
2021/11/25 06:30:13;;;;;;;29.93;17.43;;;;;;;6.67;87.06;95396.34;5074305;28;20444;-78
2021/11/25 06:32:42;;;;;;;26.80;15.70;;;;;;;6.79;87.97;95401.63;5073659;28;20441;-80
2021/11/25 06:35:12;;;;;;;20.40;13.13;;;;;;;6.93;86.63;95392.94;5074244;28;20463;-79
2021/11/25 06:37:39;;;;;;;21.17;13.13;;;;;;;7.04;86.66;95400.94;5073888;28;20520;-79
2021/11/25 06:40:07;;;;;;;16.27;10.90;;;;;;;7.06;85.96;95398.25;5074146;28;20512;-80
2021/11/25 06:42:35;;;;;;;13.40;11.00;;;;;;;7.01;85.20;95398.53;5075060;28;20521;-80
2021/11/25 06:45:02;;;;;;;18.20;11.27;;;;;;;6.57;86.36;95393.44;5074477;28;20478;-80
2021/11/25 06:47:29;;;;;;;13.77;9.80;;;;;;;6.49;86.61;95395.69;5038626;28;20454;-79
2021/11/25 06:49:55;;;;;;;17.40;9.87;;;;;;;6.27;87.52;95397.91;5073873;28;20438;-82
2021/11/25 06:52:24;;;;;;;11.27;8.90;;;;;;;6.11;87.55;95398.81;5074322;28;20437;-79
2021/11/25 06:54:51;;;;;;;14.20;10.70;;;;;;;6.18;88.37;95394.91;5073965;28;20453;-79
2021/11/25 06:57:17;;;;;;;18.07;11.10;;;;;;;6.41;88.39;95395.31;5073870;28;20460;-78
2021/11/25 06:59:45;;;;;;;13.83;9.33;;;;;;;6.47;87.42;95393.16;5073215;28;20510;-79
2021/11/25 07:02:12;;;;;;;12.40;9.00;;;;;;;6.56;86.67;95388.31;5074306;28;20465;-78
2021/11/25 07:04:39;;;;;;;14.77;10.57;;;;;;;6.67;87.04;95394.56;5054773;28;20493;-78
2021/11/25 07:07:06;;;;;;;15.73;11.87;;;;;;;6.80;85.99;95403.31;5073889;28;20428;-79
2021/11/25 07:09:34;;;;;;;14.93;9.70;;;;;;;6.81;85.48;95398.94;5073451;28;20440;-78
2021/11/25 07:12:01;;;;;;;12.13;9.30;;;;;;;6.83;85.22;95399.66;5073304;28;20451;-78
2021/11/25 07:14:28;;;;;;;10.07;8.77;;;;;;;6.88;84.79;95395.00;5072709;28;20441;-78
2021/11/25 07:16:55;;;;;;;10.80;9.47;;;;;;;6.77;85.13;95394.84;5073253;28;20908;-78
2021/11/25 07:19:22;;;;;;;11.60;8.00;;;;;;;6.62;85.34;95388.78;5073630;28;20528;-78
2021/11/25 07:21:49;;;;;;;13.30;8.70;;;;;;;6.71;85.27;95393.44;5073579;28;20425;-79
2021/11/25 07:24:16;;;;;;;10.80;9.50;;;;;;;6.72;85.21;95382.09;5072986;28;20439;-79
2021/11/25 07:26:44;;;;;;;11.03;8.57;;;;;;;6.53;85.04;95390.19;5072973;28;20944;-79
2021/11/25 07:29:11;;;;;;;11.73;9.07;;;;;;;6.49;85.93;95383.50;5072974;28;20450;-77
2021/11/25 07:31:38;;;;;;;12.93;10.63;;;;;;;6.50;86.38;95379.94;5073034;28;20441;-78
2021/11/25 07:34:05;;;;;;;18.43;11.80;;;;;;;6.68;85.73;95383.22;5073550;28;20436;-78
2021/11/25 07:36:32;;;;;;;17.53;11.13;;;;;;;6.65;86.18;95388.63;5073005;28;20448;-79
2021/11/25 07:38:59;;;;;;;16.87;11.40;;;;;;;6.68;85.24;95383.22;5054740;28;20960;-79
2021/11/25 07:41:27;;;;;;;10.47;8.23;;;;;;;6.55;84.77;95386.66;5073237;28;20500;-78
2021/11/25 07:43:55;;;;;;;13.20;9.40;;;;;;;6.53;84.64;95389.34;5074125;28;20496;-79
2021/11/25 07:46:22;;;;;;;26.40;9.33;;;;;;;6.63;84.71;95384.41;5072279;28;20474;-78
2021/11/25 07:48:49;;;;;;;15.37;9.73;;;;;;;6.68;85.08;95383.22;5072157;28;20447;-78
2021/11/25 07:51:16;;;;;;;25.10;17.40;;;;;;;6.83;85.18;95376.19;5071940;28;20448;-78
2021/11/25 07:53:43;;;;;;;26.87;17.97;;;;;;;6.99;84.90;95381.31;5071654;28;20443;-79
2021/11/25 07:56:10;;;;;;;13.77;9.80;;;;;;;6.82;84.36;95375.34;5071648;28;20451;-78
2021/11/25 07:58:37;;;;;;;16.57;12.10;;;;;;;6.88;83.51;95375.91;5071698;28;20459;-78
2021/11/25 08:01:05;;;;;;;13.37;9.67;;;;;;;7.13;83.54;95383.88;5071807;28;20453;-78
2021/11/25 08:03:32;;;;;;;13.33;9.70;;;;;;;7.29;83.18;95379.34;5071560;28;20812;-78
2021/11/25 08:06:00;;;;;;;19.23;10.23;;;;;;;7.39;82.34;95375.22;5071780;28;20491;-78
2021/11/25 08:08:26;;;;;;;14.40;10.47;;;;;;;7.50;81.74;95366.66;5071589;28;20828;-79
2021/11/25 08:10:55;;;;;;;12.10;9.13;;;;;;;7.25;81.54;95370.06;5071740;28;20449;-78
2021/11/25 08:13:22;;;;;;;15.10;10.33;;;;;;;7.42;81.92;95369.78;5074281;28;20445;-78
2021/11/25 08:15:49;;;;;;;11.73;8.77;;;;;;;7.57;81.29;95369.75;5075394;28;20529;-79
2021/11/25 08:18:17;;;;;;;12.87;8.87;;;;;;;7.69;80.84;95366.31;5056433;28;20450;-78
2021/11/25 08:20:44;;;;;;;11.77;8.77;;;;;;;7.73;80.15;95370.38;5075198;28;20942;-78
2021/11/25 08:23:11;;;;;;;12.93;9.10;;;;;;;7.77;80.30;95374.47;5075909;28;20467;-83
2021/11/25 08:25:37;;;;;;;12.60;8.90;;;;;;;7.65;79.58;95370.06;5076212;28;20491;-78
2021/11/25 08:28:05;;;;;;;12.33;8.67;;;;;;;7.55;80.08;95361.16;5075744;28;20440;-76
2021/11/25 08:30:32;;;;;;;12.40;8.97;;;;;;;7.52;80.43;95357.00;5076216;28;20450;-76
2021/11/25 08:32:59;;;;;;;10.70;7.00;;;;;;;7.53;80.38;95360.44;5076453;28;20461;-76
2021/11/25 08:35:29;;;;;;;8.87;7.97;;;;;;;7.46;81.32;95359.97;5076305;28;20435;-78
2021/11/25 08:37:56;;;;;;;28.93;24.20;;;;;;;7.18;82.04;95360.91;5075851;28;20451;-77
2021/11/25 08:40:24;;;;;;;38.00;29.30;;;;;;;7.33;82.02;95348.66;5076087;28;20937;-75
2021/11/25 08:42:51;;;;;;;37.33;28.10;;;;;;;7.54;81.74;95341.22;5075471;28;20453;-77
2021/11/25 08:45:19;;;;;;;40.10;26.83;;;;;;;7.60;81.31;95340.81;5075379;28;20489;-76
2021/11/25 08:47:46;;;;;;;13.97;11.10;;;;;;;7.25;81.60;95328.28;5075934;28;20427;-77
2021/11/25 08:50:16;;;;;;;16.90;11.87;;;;;;;7.43;81.23;95332.28;5075178;28;20475;-77
2021/11/25 08:52:44;;;;;;;12.77;10.17;;;;;;;7.37;81.04;95329.25;5075023;28;20444;-76
2021/11/25 08:55:11;;;;;;;11.93;9.80;;;;;;;7.43;81.03;95329.69;5055619;28;20449;-77
2021/11/25 08:57:39;;;;;;;18.70;12.50;;;;;;;6.94;82.78;95328.56;5072560;28;20446;-76
2021/11/25 09:00:09;;;;;;;14.20;10.37;;;;;;;6.80;83.55;95319.00;5066184;28;20958;-77
2021/11/25 09:02:36;;;;;;;16.97;11.37;;;;;;;6.63;84.29;95320.06;5040892;28;20455;-77
2021/11/25 09:05:04;;;;;;;24.33;14.33;;;;;;;6.72;84.91;95327.31;5074557;28;20953;-77
2021/11/25 09:07:31;;;;;;;23.40;16.57;;;;;;;7.01;83.86;95324.63;5039267;28;20452;-77
2021/11/25 09:09:59;;;;;;;12.23;8.90;;;;;;;7.09;83.61;95317.16;5073975;28;20448;-77
2021/11/25 09:12:26;;;;;;;11.87;8.93;;;;;;;7.12;82.20;95320.41;5074091;28;20528;-77
2021/11/25 09:14:53;;;;;;;11.83;9.10;;;;;;;7.15;82.92;95314.13;5073818;28;20441;-76
2021/11/25 09:17:20;;;;;;;13.77;11.73;;;;;;;6.96;83.57;95316.28;5073832;28;20814;-77
2021/11/25 09:19:47;;;;;;;14.23;9.80;;;;;;;6.67;83.83;95313.72;5073873;28;20525;-77
2021/11/25 09:22:15;;;;;;;14.73;11.33;;;;;;;6.59;85.26;95305.53;5074182;28;20926;-77
2021/11/25 09:24:42;;;;;;;19.03;12.80;;;;;;;6.69;86.09;95306.66;5074557;28;21017;-75
2021/11/25 09:27:10;;;;;;;14.63;11.97;;;;;;;6.75;85.04;95305.41;5074559;28;20481;-76
2021/11/25 09:29:37;;;;;;;13.00;9.67;;;;;;;6.79;84.33;95302.53;5075139;28;20448;-76
2021/11/25 09:32:06;;;;;;;13.00;9.53;;;;;;;7.01;83.37;95301.16;5039975;28;20975;-77
2021/11/25 09:34:33;;;;;;;13.00;9.13;;;;;;;6.77;83.90;95293.97;5040217;28;20818;-76
2021/11/25 09:37:00;;;;;;;13.40;8.70;;;;;;;6.86;84.36;95294.31;5074554;28;20442;-76
2021/11/25 09:39:27;;;;;;;10.47;8.17;;;;;;;6.96;83.53;95295.41;5074652;28;20416;-76
2021/11/25 09:41:55;;;;;;;9.70;8.53;;;;;;;6.97;83.68;95291.84;5075015;28;20444;-75
2021/11/25 09:44:24;;;;;;;15.00;10.87;;;;;;;7.13;83.28;95280.31;5074699;28;20901;-76
2021/11/25 09:46:54;;;;;;;12.27;9.57;;;;;;;7.22;83.25;95286.69;5074601;28;20487;-76
2021/11/25 09:49:21;;;;;;;11.07;7.97;;;;;;;7.32;83.18;95285.19;5074310;28;20430;-76
2021/11/25 09:51:48;;;;;;;14.47;9.73;;;;;;;7.37;81.88;95287.47;5074676;28;20808;-76
2021/11/25 09:54:16;;;;;;;10.33;8.40;;;;;;;7.51;82.10;95289.16;5074002;28;20792;-76
2021/11/25 09:56:43;;;;;;;11.90;9.20;;;;;;;7.09;83.10;95294.50;5073558;28;20540;-76
2021/11/25 09:59:10;;;;;;;14.70;9.40;;;;;;;7.11;83.48;95291.78;5039191;28;20798;-76
2021/11/25 10:01:39;;;;;;;10.80;8.43;;;;;;;7.12;82.45;95298.69;5074731;28;20448;-76
2021/11/25 10:04:06;;;;;;;10.43;8.27;;;;;;;7.25;82.46;95294.34;5074437;28;20436;-76
2021/11/25 10:06:34;;;;;;;14.93;8.57;;;;;;;7.14;83.36;95287.22;5038471;28;20489;-76
2021/11/25 10:09:04;;;;;;;16.03;8.40;;;;;;;7.04;83.14;95290.53;5072666;28;20537;-76
2021/11/25 10:11:33;;;;;;;17.13;12.33;;;;;;;6.94;84.58;95278.97;5072870;28;20819;-75
2021/11/25 10:14:04;;;;;;;21.83;15.97;;;;;;;7.14;84.12;95286.38;5072884;28;20809;-76
2021/11/25 10:16:33;;;;;;;14.40;9.20;;;;;;;7.00;83.73;95276.84;5073150;28;20446;-75
2021/11/25 10:19:13;;;;;;;12.93;8.57;;;;;;;7.16;83.26;95266.22;5073106;28;20455;-76
2021/11/25 10:21:43;;;;;;;9.30;7.10;;;;;;;7.40;82.30;95269.84;5074004;28;20800;-75
2021/11/25 10:24:10;;;;;;;13.63;9.30;;;;;;;7.27;82.71;95266.38;5074019;28;20434;-76
2021/11/25 10:26:37;;;;;;;18.90;11.23;;;;;;;7.34;83.34;95261.59;5073979;28;20855;-76
2021/11/25 10:29:07;;;;;;;12.60;10.20;;;;;;;7.39;83.08;95260.34;5074286;28;20448;-75
2021/11/25 10:31:35;;;;;;;28.47;21.47;;;;;;;7.58;82.44;95257.34;5073664;28;20521;-75
2021/11/25 10:34:08;;;;;;;16.53;12.00;;;;;;;7.59;81.80;95255.56;5073815;28;20431;-76
2021/11/25 10:36:55;;;;;;;13.33;9.70;;;;;;;7.70;80.63;95247.84;5073407;28;20456;-76
2021/11/25 10:39:34;;;;;;;11.17;9.00;;;;;;;7.64;80.39;95253.47;5074071;28;20450;-76
2021/11/25 10:42:03;;;;;;;10.87;9.03;;;;;;;7.59;80.41;95255.56;5073568;28;21004;-76
2021/11/25 10:44:32;;;;;;;11.10;8.43;;;;;;;7.59;81.55;95245.97;5073390;28;20456;-75
2021/11/25 10:47:04;;;;;;;11.37;7.47;;;;;;;7.16;81.68;95247.97;5073736;28;21001;-76
2021/11/25 10:49:47;;;;;;;13.90;9.47;;;;;;;7.43;81.83;95235.69;5073513;28;20929;-75
2021/11/25 10:52:27;;;;;;;11.03;8.87;;;;;;;7.34;81.73;95236.31;5073450;28;20432;-76
2021/11/25 10:54:56;;;;;;;15.40;9.97;;;;;;;7.39;82.33;95231.63;5073213;28;20873;-75
2021/11/25 10:57:35;;;;;;;14.93;10.90;;;;;;;7.32;81.87;95225.16;5073153;28;20464;-75
2021/11/25 11:00:27;;;;;;;16.47;10.03;;;;;;;7.30;83.02;95219.19;5073241;28;20434;-80
2021/11/25 11:03:06;;;;;;;15.77;10.53;;;;;;;7.04;83.32;95222.69;5050903;28;20468;-78
2021/11/25 11:05:48;;;;;;;12.70;9.60;;;;;;;7.00;83.21;95219.44;5051080;28;20445;-80
2021/11/25 11:08:16;;;;;;;11.17;9.40;;;;;;;7.10;83.42;95219.66;5050990;28;20438;-80
2021/11/25 11:10:55;;;;;;;14.67;11.07;;;;;;;6.84;83.80;95205.72;5051139;28;20440;-80
2021/11/25 11:13:36;;;;;;;22.53;12.30;;;;;;;7.13;83.61;95219.47;5050948;28;20437;-80
2021/11/25 11:16:24;;;;;;;14.90;9.17;;;;;;;6.96;83.44;95217.13;5051482;28;20924;-80
2021/11/25 11:18:56;;;;;;;12.10;9.63;;;;;;;7.13;84.02;95216.84;5050974;28;20460;-80
2021/11/25 11:21:36;;;;;;;15.73;11.13;;;;;;;7.04;83.80;95201.81;5051677;28;20920;-80
2021/11/25 11:24:06;;;;;;;12.17;9.00;;;;;;;7.24;83.47;95203.09;5051271;28;20482;-80
2021/11/25 11:26:34;;;;;;;12.87;9.13;;;;;;;7.43;83.18;95198.31;5052888;28;20482;-80
2021/11/25 11:29:02;;;;;;;10.97;8.30;;;;;;;7.37;82.57;95204.78;5073001;28;20917;-75
2021/11/25 11:31:32;;;;;;;16.83;10.32;;;;;;;7.38;81.91;95201.22;5073013;28;20443;-75
2021/11/25 11:33:59;;;;;;;14.23;11.88;;;;;;;7.31;83.01;95196.53;5072577;28;20442;-75
2021/11/25 11:36:26;;;;;;;13.63;10.93;;;;;;;7.55;82.17;95196.66;5073346;28;20205;-75
2021/11/25 11:38:57;;;;;;;12.97;9.33;;;;;;;7.67;81.46;95195.81;5037648;28;20440;-75
2021/11/25 11:41:24;;;;;;;13.53;8.87;;;;;;;7.60;81.37;95190.19;5073296;28;20448;-75
2021/11/25 11:43:51;;;;;;;15.60;9.80;;;;;;;7.54;81.99;95189.78;5073245;28;20457;-76
2021/11/25 11:46:18;;;;;;;15.77;9.70;;;;;;;7.45;82.39;95189.44;5055365;28;20504;-74
2021/11/25 11:48:46;;;;;;;12.40;9.20;;;;;;;7.51;82.07;95184.72;5076772;28;20456;-74
2021/11/25 11:51:16;;;;;;;14.90;10.17;;;;;;;7.46;82.42;95185.03;5077611;28;20428;-75
2021/11/25 11:53:45;;;;;;;16.03;10.80;;;;;;;7.45;82.51;95178.97;5076829;28;20530;-75
2021/11/25 11:56:16;;;;;;;11.50;9.20;;;;;;;7.40;81.99;95172.41;5076613;28;20524;-77
2021/11/25 11:58:53;;;;;;;23.50;15.73;;;;;;;7.61;82.12;95167.50;5077229;28;20506;-75